Terminal Aerodrome Forecast
Issued by NWS

Home | Current Version | Previous Version | Text Only | Print | Product List | Glossary On
Versions: 1 2 3 4 5 6 7 8 9 10 11 12 13 14 15 16
000
FTUS42 TJSJ 201700 AAA
TAFJMZ
TAF AMD
TJMZ 201749Z 2018/2118 28010KT P6SM BKN040
      TEMPO 2018/2020 VRB10KT 3SM TSRA BKN025CB
     FM202200 06006KT P6SM SCT025
     FM211400 25010KT P6SM SCT040
     FM211700 28010KT P6SM VCTS BKN030CB
      AMD NOT SKED=

USA.gov is the U.S. government's official web portal to all federal, state and local government web resources and services.